< Cyclone 197713 1978 Season Cyclone 197802 >
Cyclone 197801 (TOM)
General InformationTrack Information on Google Maps || ResourceGoogle EarthGE AnimationAtom FeedGeoJSON
Detalied Best Track (Time Zone = UTC)
Year Month Day Hour Lat. Long. Pressure (hPa) Wind (kt) Class Image Chart
1977 11 6 23 -8.4 154.6 1000 0 0 -- --
1977 11 7 05 -8.6 154.0 1000 0 0 -- --
1977 11 7 11 -9.0 153.4 1000 0 0 -- --
1977 11 7 17 -9.5 152.8 1000 0 0 -- --
1977 11 7 20 -9.8 152.5 1000 0 0 -- --
1977 11 7 23 -10.2 152.5 999 0 0 -- --
1977 11 8 02 -10.5 152.6 997 0 0 -- --
1977 11 8 05 -10.8 152.9 994 0 0 -- --
1977 11 8 11 -11.5 153.0 994 0 0 -- --
1977 11 8 17 -11.8 153.4 994 0 0 -- --
1977 11 8 23 -12.0 153.9 994 0 0 -- --
1977 11 9 05 -12.2 154.6 990 0 0 -- --
1977 11 9 11 -12.4 155.5 990 0 0 -- --
1977 11 9 17 -12.6 156.5 990 0 0 -- --
1977 11 9 23 -13.0 157.5 992 0 0 -- --
1977 11 10 05 -13.4 158.6 994 0 0 -- --
1977 11 10 11 -13.8 159.6 996 0 0 -- --
1977 11 10 14 -14.0 160.0 996 0 0 -- --
1977 11 10 17 -14.3 160.2 996 0 0 -- --
1977 11 10 20 -14.6 160.3 996 0 0 -- --
1977 11 10 23 -14.9 160.4 998 0 0 -- --
1977 11 11 05 -15.4 160.4 1000 0 0 -- --
1977 11 11 11 -15.9 160.2 1002 0 0 -- --
1977 11 11 17 -17.1 160.0 1002 0 0 -- --
1977 11 11 23 -18.4 159.7 1005 0 0 -- --
< Cyclone 197713 1978 Season Cyclone 197802 >

Help